createdAt,value
2016-12-22T10:54:56.373Z,17.07
2016-12-22T10:55:56.309Z,16.97
2016-12-22T10:56:56.242Z,17.16
2016-12-22T10:57:56.174Z,17.16
2016-12-22T10:58:56.114Z,17.25
2016-12-22T10:59:56.051Z,16.97
2016-12-22T11:00:55.990Z,17.07
2016-12-22T11:01:55.924Z,17.07
2016-12-22T11:02:55.863Z,17.07
2016-12-22T11:03:55.808Z,17.07
2016-12-22T11:04:55.738Z,17.07
2016-12-22T11:05:55.673Z,17.07
2016-12-22T11:06:55.618Z,17.07
2016-12-22T11:07:55.549Z,17.07
2016-12-22T11:08:55.486Z,17.07
2016-12-22T11:09:55.432Z,17.07
2016-12-22T11:10:55.361Z,16.87
2016-12-22T11:11:55.297Z,17.07
2016-12-22T11:12:55.236Z,17.07
2016-12-22T11:13:55.180Z,17.07
2016-12-22T11:14:55.419Z,16.97
2016-12-22T11:15:55.046Z,17.07
2016-12-22T11:16:54.983Z,17.07
2016-12-22T11:17:54.922Z,16.97
2016-12-22T11:18:54.861Z,17.07
2016-12-22T11:19:55.137Z,16.97
2016-12-22T11:20:54.731Z,16.97
2016-12-22T11:21:54.705Z,16.97
2016-12-22T11:22:54.609Z,17.64
2016-12-22T11:23:54.542Z,17.07
2016-12-22T11:24:54.486Z,17.07
2016-12-22T11:25:54.422Z,17.07
2016-12-22T11:26:54.356Z,17.55
2016-12-22T11:27:54.295Z,17.07
2016-12-22T11:28:54.236Z,17.45
2016-12-22T11:29:54.476Z,17.45
2016-12-22T11:30:54.110Z,17.45
2016-12-22T11:31:54.048Z,17.64
2016-12-22T11:32:53.978Z,17.45
2016-12-22T11:33:53.919Z,17.45
2016-12-22T11:34:53.855Z,17.35
2016-12-22T11:35:53.793Z,17.55
2016-12-22T11:36:53.727Z,17.55
2016-12-22T11:37:53.664Z,17.55
2016-12-22T11:38:53.604Z,17.45
2016-12-22T11:39:53.540Z,17.35
2016-12-22T11:40:53.477Z,17.45
2016-12-22T11:41:53.413Z,17.83
2016-12-22T11:42:53.367Z,17.35
2016-12-22T11:43:53.287Z,17.45
2016-12-22T11:44:53.229Z,17.45
2016-12-22T11:45:53.162Z,17.55
2016-12-22T11:46:53.106Z,17.55
2016-12-22T11:47:53.037Z,17.35
2016-12-22T11:48:52.974Z,17.55
2016-12-22T11:49:52.910Z,17.25
2016-12-22T11:50:52.847Z,17.55
2016-12-22T11:51:52.786Z,17.25
2016-12-22T11:52:52.722Z,17.25
2016-12-22T11:53:52.664Z,17.25
2016-12-22T11:54:52.925Z,17.25
2016-12-22T11:55:52.535Z,17.35
2016-12-22T11:56:52.470Z,17.25
2016-12-22T11:57:52.409Z,17.16
2016-12-22T11:58:52.358Z,17.35
2016-12-22T11:59:52.282Z,17.25
2016-12-22T12:00:52.220Z,17.16
2016-12-22T12:01:52.157Z,17.16
2016-12-22T12:02:52.095Z,17.25
2016-12-22T12:03:52.034Z,17.16
2016-12-22T12:04:51.975Z,17.45
2016-12-22T12:05:51.907Z,17.64
2016-12-22T12:06:51.842Z,17.35
2016-12-22T12:07:51.783Z,17.35
2016-12-22T12:08:51.722Z,17.25
2016-12-22T12:09:51.654Z,17.55
2016-12-22T12:10:51.682Z,17.55
2016-12-22T12:11:51.537Z,17.55
2016-12-22T12:12:51.470Z,17.35
2016-12-22T12:13:51.403Z,17.55
2016-12-22T12:14:51.370Z,17.64
2016-12-22T12:15:51.277Z,17.74
2016-12-22T12:16:51.216Z,17.64
2016-12-22T12:17:51.185Z,17.64
2016-12-22T12:18:51.088Z,17.55
2016-12-22T12:19:51.026Z,17.55
2016-12-22T12:20:50.971Z,17.64
2016-12-22T12:21:50.903Z,17.55
2016-12-22T12:22:50.836Z,17.55
2016-12-22T12:23:50.775Z,17.74
2016-12-22T12:24:50.713Z,17.64
2016-12-22T12:25:50.650Z,17.64
2016-12-22T12:26:50.591Z,17.55
2016-12-22T12:27:50.523Z,17.74
2016-12-22T12:28:50.469Z,17.55
2016-12-22T12:29:50.399Z,17.83
2016-12-22T12:30:50.403Z,18.03
2016-12-22T12:31:50.298Z,18.03
2016-12-22T12:32:50.208Z,18.12
2016-12-22T12:33:50.246Z,18.12
2016-12-22T12:34:50.088Z,17.93
2016-12-22T12:35:50.052Z,17.93
2016-12-22T12:36:50.012Z,18.03
2016-12-22T12:37:49.920Z,18.12
2016-12-22T12:38:49.923Z,18.12
2016-12-22T12:39:49.806Z,18.12
2016-12-22T12:40:49.778Z,18.12
2016-12-22T12:41:49.794Z,17.93
2016-12-22T12:42:49.721Z,17.93
2016-12-22T12:43:49.602Z,18.03
2016-12-22T12:44:49.807Z,18.03
2016-12-22T12:45:49.741Z,18.03
2016-12-22T12:46:49.418Z,18.03
2016-12-22T12:47:49.316Z,18.12
2016-12-22T12:48:49.553Z,18.03
2016-12-22T12:49:49.200Z,18.12
2016-12-22T12:50:49.137Z,18.03
2016-12-22T12:51:49.027Z,18.03
2016-12-22T12:52:49.350Z,18.03
2016-12-22T12:53:49.286Z,17.93
2016-12-22T12:54:48.893Z,18.03
2016-12-22T12:55:48.819Z,18.12
2016-12-22T12:56:48.753Z,18.12
2016-12-22T12:57:48.638Z,18.03
2016-12-22T12:58:48.610Z,18.22
2016-12-22T12:59:48.540Z,18.12
2016-12-22T13:00:48.452Z,18.03
2016-12-22T13:01:48.425Z,18.12
2016-12-22T13:02:48.413Z,18.03
2016-12-22T13:03:48.298Z,18.22
2016-12-22T13:04:48.268Z,18.12
2016-12-22T13:05:48.151Z,18.12
2016-12-22T13:06:48.106Z,18.12
2016-12-22T13:07:48.010Z,18.12
2016-12-22T13:08:47.950Z,18.12
2016-12-22T13:09:47.884Z,18.03
2016-12-22T13:10:47.819Z,18.03
2016-12-22T13:11:47.762Z,18.12
2016-12-22T13:12:47.723Z,18.12
2016-12-22T13:13:47.632Z,18.03
2016-12-22T13:14:47.575Z,18.22
2016-12-22T13:15:47.509Z,18.03
2016-12-22T13:16:47.449Z,17.93
2016-12-22T13:17:47.691Z,18.03
2016-12-22T13:18:47.317Z,18.12
2016-12-22T13:19:47.255Z,18.12
2016-12-22T13:20:47.500Z,18.12
2016-12-22T13:21:47.134Z,17.83
2016-12-22T13:22:47.070Z,18.51
2016-12-22T13:23:47.003Z,18.51
2016-12-22T13:24:46.942Z,18.6
2016-12-22T13:25:46.876Z,18.41
2016-12-22T13:26:46.815Z,18.41
2016-12-22T13:27:47.069Z,18.41
2016-12-22T13:28:46.692Z,18.41
2016-12-22T13:29:46.959Z,18.51
2016-12-22T13:30:46.569Z,18.6
2016-12-22T13:31:46.509Z,18.7
2016-12-22T13:32:46.435Z,18.6
2016-12-22T13:33:46.372Z,18.51
2016-12-22T13:34:46.328Z,18.6
2016-12-22T13:35:46.251Z,18.6
2016-12-22T13:36:46.395Z,18.6
2016-12-22T13:37:46.122Z,18.6
2016-12-22T13:38:46.057Z,18.41
2016-12-22T13:39:46.004Z,18.51
2016-12-22T13:40:45.932Z,18.41
2016-12-22T13:41:45.938Z,18.32
2016-12-22T13:42:45.875Z,18.41
2016-12-22T13:43:46.076Z,18.32
2016-12-22T13:44:45.680Z,18.41
2016-12-22T13:45:45.716Z,18.32
2016-12-22T13:46:45.618Z,18.32
2016-12-22T13:47:45.496Z,18.32
2016-12-22T13:48:45.430Z,18.32
2016-12-22T13:49:45.375Z,18.32
2016-12-22T13:50:45.317Z,18.41
2016-12-22T13:51:45.239Z,18.41
2016-12-22T13:52:45.180Z,18.22
2016-12-22T13:53:45.426Z,18.32
2016-12-22T13:54:45.049Z,18.32
2016-12-22T13:55:45.138Z,18.12
2016-12-22T13:56:44.935Z,18.22
2016-12-22T13:57:44.864Z,18.03
2016-12-22T13:58:44.802Z,18.03
2016-12-22T13:59:44.754Z,18.12
2016-12-22T14:00:44.826Z,18.12
2016-12-22T14:01:44.608Z,18.03
2016-12-22T14:02:44.547Z,18.22
2016-12-22T14:03:44.484Z,18.03
2016-12-22T14:04:44.451Z,18.03
2016-12-22T14:05:44.367Z,18.12
2016-12-22T14:06:44.328Z,18.41
2016-12-22T14:07:44.234Z,18.41
2016-12-22T14:08:44.171Z,18.12
2016-12-22T14:09:44.107Z,18.7
2016-12-22T14:10:44.096Z,18.51
2016-12-22T14:11:43.995Z,18.41
2016-12-22T14:12:43.922Z,18.8
2016-12-22T14:13:43.854Z,18.6
2016-12-22T14:14:43.801Z,18.6
2016-12-22T14:15:44.089Z,18.6
2016-12-22T14:16:43.718Z,18.6
2016-12-22T14:17:43.603Z,18.6
2016-12-22T14:18:43.540Z,18.51
2016-12-22T14:19:43.476Z,18.51
2016-12-22T14:20:43.418Z,18.7
2016-12-22T14:21:43.665Z,18.6
2016-12-22T14:22:43.285Z,18.8
2016-12-22T14:23:43.223Z,18.8
2016-12-22T14:24:43.160Z,18.8
2016-12-22T14:25:43.406Z,18.7
2016-12-22T14:26:43.051Z,18.7
2016-12-22T14:27:42.989Z,19.09
2016-12-22T14:28:42.921Z,18.99
2016-12-22T14:29:42.860Z,19.18
2016-12-22T14:30:42.931Z,18.99
2016-12-22T14:31:42.726Z,18.99
2016-12-22T14:32:42.657Z,19.09
2016-12-22T14:33:42.601Z,19.18
2016-12-22T14:34:42.532Z,18.9
2016-12-22T14:35:42.467Z,19.09
2016-12-22T14:36:42.409Z,19.09
2016-12-22T14:37:42.343Z,19.09
2016-12-22T14:38:42.590Z,18.99
2016-12-22T14:39:42.530Z,18.99
2016-12-22T14:40:42.160Z,18.99
2016-12-22T14:41:42.089Z,18.9
2016-12-22T14:42:42.026Z,18.9
2016-12-22T14:43:41.967Z,19.09
2016-12-22T14:44:41.899Z,18.99
2016-12-22T14:45:41.840Z,18.9
2016-12-22T14:46:41.774Z,18.99
2016-12-22T14:47:41.717Z,18.99
2016-12-22T14:48:41.647Z,18.8
2016-12-22T14:49:41.895Z,18.9
2016-12-22T14:50:41.522Z,18.9
2016-12-22T14:51:41.462Z,18.8
2016-12-22T14:52:41.399Z,18.9
2016-12-22T14:53:41.349Z,18.7
2016-12-22T14:54:41.272Z,18.8
2016-12-22T14:55:41.357Z,18.8
2016-12-22T14:56:41.149Z,18.8
2016-12-22T14:57:41.080Z,18.8
2016-12-22T14:58:41.018Z,18.51
2016-12-22T14:59:40.955Z,18.7
2016-12-22T15:00:40.892Z,19.18
2016-12-22T15:01:40.829Z,19.09
2016-12-22T15:02:40.777Z,18.99
2016-12-22T15:03:40.709Z,18.99
2016-12-22T15:04:40.641Z,19.09
2016-12-22T15:05:40.580Z,19.47
2016-12-22T15:06:40.514Z,19.28
2016-12-22T15:07:40.459Z,19.18
2016-12-22T15:08:40.700Z,19.28
2016-12-22T15:09:40.326Z,19.09
2016-12-22T15:10:40.412Z,19.28
2016-12-22T15:11:40.200Z,19.09
2016-12-22T15:12:40.137Z,19.18
2016-12-22T15:13:40.074Z,19.18
2016-12-22T15:14:40.013Z,19.28
2016-12-22T15:15:39.959Z,19.38
2016-12-22T15:16:39.888Z,19.38
2016-12-22T15:17:39.829Z,19.18
2016-12-22T15:18:39.760Z,19.28
2016-12-22T15:19:39.697Z,19.38
2016-12-22T15:20:39.635Z,19.28
2016-12-22T15:21:39.582Z,19.38
2016-12-22T15:22:39.509Z,19.28
2016-12-22T15:23:39.448Z,19.38
2016-12-22T15:24:39.694Z,19.57
2016-12-22T15:25:39.324Z,19.57
2016-12-22T15:26:39.266Z,19.38
2016-12-22T15:27:39.517Z,19.47
2016-12-22T15:28:39.341Z,19.38
2016-12-22T15:29:39.382Z,19.28
2016-12-22T15:30:39.006Z,19.47
2016-12-22T15:31:38.950Z,19.38
2016-12-22T15:32:38.878Z,19.67
2016-12-22T15:33:39.135Z,19.57
2016-12-22T15:34:38.754Z,19.47
2016-12-22T15:35:38.690Z,19.67
2016-12-22T15:36:38.630Z,19.76
2016-12-22T15:37:38.565Z,19.95
2016-12-22T15:38:38.510Z,19.57
2016-12-22T15:39:38.442Z,19.57
2016-12-22T15:40:38.385Z,19.57
2016-12-22T15:41:38.321Z,19.67
2016-12-22T15:42:38.253Z,19.57
2016-12-22T15:43:38.189Z,19.57
2016-12-22T15:44:38.129Z,19.86
2016-12-22T15:45:38.087Z,19.57
2016-12-22T15:46:38.000Z,19.47
2016-12-22T15:47:37.936Z,19.76
2016-12-22T15:48:38.188Z,19.76
2016-12-22T15:49:37.818Z,19.67
2016-12-22T15:50:37.749Z,19.67
2016-12-22T15:51:37.684Z,19.86
2016-12-22T15:52:37.622Z,19.67
2016-12-22T15:53:37.558Z,19.95
2016-12-22T15:54:37.503Z,19.67
2016-12-22T15:55:37.452Z,19.86
2016-12-22T15:56:37.682Z,19.95
2016-12-22T15:57:37.311Z,20.05
2016-12-22T15:58:37.557Z,19.95
2016-12-22T15:59:37.185Z,20.15
2016-12-22T16:00:37.131Z,20.05
2016-12-22T16:01:37.063Z,20.15
2016-12-22T16:02:36.992Z,19.95
2016-12-22T16:03:36.929Z,20.25
2016-12-22T16:04:36.866Z,20.25
2016-12-22T16:05:37.117Z,20.15
2016-12-22T16:06:36.747Z,20.15
2016-12-22T16:07:36.674Z,20.05
2016-12-22T16:08:36.613Z,20.15
2016-12-22T16:09:36.558Z,20.15
2016-12-22T16:10:36.485Z,20.05
2016-12-22T16:11:36.425Z,20.15
2016-12-22T16:12:36.365Z,19.95
2016-12-22T16:13:36.312Z,20.34
2016-12-22T16:14:36.236Z,20.25
2016-12-22T16:15:36.485Z,20.05
2016-12-22T16:16:36.109Z,20.43
2016-12-22T16:17:36.044Z,19.95
2016-12-22T16:18:36.027Z,20.25
2016-12-22T16:19:35.927Z,20.15
2016-12-22T16:20:35.868Z,20.15
2016-12-22T16:21:35.794Z,20.25
2016-12-22T16:22:35.749Z,20.25
2016-12-22T16:23:35.671Z,20.34
2016-12-22T16:24:35.618Z,20.15
2016-12-22T16:25:35.542Z,19.86
2016-12-22T16:26:35.476Z,20.34
2016-12-22T16:27:35.416Z,20.25
2016-12-22T16:28:35.353Z,20.34
2016-12-22T16:29:35.290Z,20.43
2016-12-22T16:30:35.229Z,20.25
2016-12-22T16:31:35.165Z,20.15
2016-12-22T16:32:35.102Z,20.15
2016-12-22T16:33:35.040Z,20.43
2016-12-22T16:34:34.977Z,20.34
2016-12-22T16:35:34.922Z,20.43
2016-12-22T16:36:34.855Z,20.25
2016-12-22T16:37:34.795Z,20.25
2016-12-22T16:38:34.724Z,20.25
2016-12-22T16:39:34.661Z,20.34
2016-12-22T16:40:34.596Z,20.53
2016-12-22T16:41:34.535Z,20.73
2016-12-22T16:42:34.470Z,20.53
2016-12-22T16:43:34.412Z,20.63
2016-12-22T16:44:34.346Z,20.43
2016-12-22T16:45:34.282Z,20.25
2016-12-22T16:46:34.224Z,20.34
2016-12-22T16:47:34.165Z,20.73
2016-12-22T16:48:34.099Z,20.25
2016-12-22T16:49:34.048Z,20.73
2016-12-22T16:50:33.969Z,20.43
2016-12-22T16:51:34.220Z,20.83
2016-12-22T16:52:33.854Z,20.73
2016-12-22T16:53:34.095Z,20.53
2016-12-22T16:54:33.725Z,20.73
2016-12-22T16:55:33.653Z,20.34
2016-12-22T16:56:33.604Z,20.43
2016-12-22T16:57:33.535Z,20.53
2016-12-22T16:58:33.470Z,20.34
2016-12-22T16:59:33.419Z,20.34
2016-12-22T17:00:33.340Z,20.73
2016-12-22T17:01:33.277Z,20.43
2016-12-22T17:02:33.215Z,20.63
2016-12-22T17:03:33.150Z,20.83
2016-12-22T17:04:33.091Z,20.83
2016-12-22T17:05:33.026Z,20.43
2016-12-22T17:06:32.966Z,20.73
2016-12-22T17:07:32.900Z,20.53
2016-12-22T17:08:32.840Z,20.73
2016-12-22T17:09:32.776Z,20.83
2016-12-22T17:10:32.710Z,20.83
2016-12-22T17:11:32.648Z,20.73
2016-12-22T17:12:32.586Z,20.63
2016-12-22T17:13:32.525Z,20.53
2016-12-22T17:14:32.466Z,20.63
2016-12-22T17:15:32.397Z,20.63
2016-12-22T17:16:32.336Z,20.83
2016-12-22T17:17:32.273Z,20.73
2016-12-22T17:18:32.212Z,21.01
2016-12-22T17:19:32.148Z,20.92
2016-12-22T17:20:32.085Z,20.83
2016-12-22T17:21:32.032Z,20.92
2016-12-22T17:22:31.962Z,20.92
2016-12-22T17:23:31.895Z,20.83
2016-12-22T17:24:31.832Z,21.01
2016-12-22T17:25:31.770Z,21.01
2016-12-22T17:26:31.707Z,20.92
2016-12-22T17:27:31.965Z,20.73
2016-12-22T17:28:31.581Z,20.73
2016-12-22T17:29:31.523Z,20.83
2016-12-22T17:30:31.768Z,20.83
2016-12-22T17:31:31.543Z,21.11
2016-12-22T17:32:31.353Z,20.92
2016-12-22T17:33:31.274Z,21.11
2016-12-22T17:34:31.211Z,21.01
2016-12-22T17:35:31.141Z,21.01
2016-12-22T17:36:31.389Z,21.01
2016-12-22T17:37:31.017Z,20.92
2016-12-22T17:38:30.955Z,21.01
2016-12-22T17:39:30.892Z,21.11
2016-12-22T17:40:30.834Z,21.01
2016-12-22T17:41:30.773Z,21.21
2016-12-22T17:42:30.710Z,21.01
2016-12-22T17:43:30.640Z,21.21
2016-12-22T17:44:30.583Z,21.11
2016-12-22T17:45:30.667Z,21.4
2016-12-22T17:46:30.452Z,21.5
2016-12-22T17:47:30.403Z,21.5
2016-12-22T17:48:30.343Z,21.31
2016-12-22T17:49:30.264Z,21.01
2016-12-22T17:50:30.206Z,21.4
2016-12-22T17:51:30.137Z,21.4
2016-12-22T17:52:30.078Z,21.31
2016-12-22T17:53:30.012Z,21.4
2016-12-22T17:54:29.952Z,21.4
2016-12-22T17:55:29.889Z,21.31
2016-12-22T17:56:29.830Z,21.21
2016-12-22T17:57:29.759Z,21.21
2016-12-22T17:58:30.017Z,21.4
2016-12-22T17:59:29.650Z,21.31
2016-12-22T18:00:29.584Z,21.21
2016-12-22T18:01:29.509Z,21.11
2016-12-22T18:02:29.453Z,21.21
2016-12-22T18:03:29.393Z,21.5
2016-12-22T18:04:29.328Z,21.4
2016-12-22T18:05:29.358Z,21.5
2016-12-22T18:06:29.224Z,21.69
2016-12-22T18:07:29.446Z,21.4
2016-12-22T18:08:29.073Z,21.5
2016-12-22T18:09:29.332Z,21.59
2016-12-22T18:10:29.265Z,21.4
2016-12-22T18:11:28.882Z,21.4
2016-12-22T18:12:28.840Z,21.59
2016-12-22T18:13:28.762Z,21.59
2016-12-22T18:14:28.693Z,21.4
2016-12-22T18:15:28.645Z,21.59
2016-12-22T18:16:28.571Z,21.4
2016-12-22T18:17:28.837Z,21.59
2016-12-22T18:18:28.447Z,21.59
2016-12-22T18:19:28.378Z,21.59
2016-12-22T18:20:28.318Z,21.5
2016-12-22T18:21:28.261Z,21.79
2016-12-22T18:22:28.190Z,21.69
2016-12-22T18:23:28.128Z,21.69
2016-12-22T18:24:28.066Z,21.59
2016-12-22T18:25:28.316Z,21.59
2016-12-22T18:26:27.940Z,21.69
2016-12-22T18:27:27.881Z,21.69
2016-12-22T18:28:27.814Z,21.69
2016-12-22T18:29:27.753Z,21.69
2016-12-22T18:30:27.692Z,21.69
2016-12-22T18:31:27.626Z,21.69
2016-12-22T18:32:27.569Z,21.79
2016-12-22T18:33:27.502Z,21.5
2016-12-22T18:34:27.439Z,21.59
2016-12-22T18:35:27.378Z,21.69
2016-12-22T18:36:27.313Z,21.79
2016-12-22T18:37:27.255Z,21.69
2016-12-22T18:38:27.499Z,21.59
2016-12-22T18:39:27.124Z,21.69
2016-12-22T18:40:27.060Z,21.69
2016-12-22T18:41:27.003Z,21.69
2016-12-22T18:42:26.936Z,21.69
2016-12-22T18:43:27.185Z,21.79
2016-12-22T18:44:26.851Z,21.79
2016-12-22T18:45:26.754Z,21.5
2016-12-22T18:46:26.684Z,21.59
2016-12-22T18:47:26.624Z,21.59
2016-12-22T18:48:26.559Z,21.59
2016-12-22T18:49:26.498Z,21.69
2016-12-22T18:50:26.584Z,21.69
2016-12-22T18:51:26.375Z,21.79
2016-12-22T18:52:26.310Z,21.79
2016-12-22T18:53:26.249Z,21.79
2016-12-22T18:54:26.182Z,21.79
2016-12-22T18:55:26.129Z,21.69
2016-12-22T18:56:26.060Z,21.79
2016-12-22T18:57:25.994Z,21.69
2016-12-22T18:58:25.940Z,21.59
2016-12-22T18:59:25.866Z,21.69
2016-12-22T19:00:25.807Z,21.69
2016-12-22T19:01:26.070Z,21.59
2016-12-22T19:02:25.679Z,21.69
2016-12-22T19:03:25.933Z,21.59
2016-12-22T19:04:25.554Z,21.59
2016-12-22T19:05:25.495Z,21.59
2016-12-22T19:06:25.429Z,21.59
2016-12-22T19:07:25.363Z,21.59
2016-12-22T19:08:25.303Z,21.59
2016-12-22T19:09:25.244Z,21.5
2016-12-22T19:10:25.178Z,21.59
2016-12-22T19:11:25.128Z,21.69
2016-12-22T19:12:25.052Z,21.5
2016-12-22T19:13:24.990Z,21.59
2016-12-22T19:14:24.931Z,21.59
2016-12-22T19:15:24.869Z,21.4
2016-12-22T19:16:24.815Z,21.59
2016-12-22T19:17:24.744Z,21.59
2016-12-22T19:18:24.685Z,21.4
2016-12-22T19:19:24.619Z,21.4
2016-12-22T19:20:24.548Z,22.08
2016-12-22T19:21:24.485Z,21.5
2016-12-22T19:22:24.429Z,21.88
2016-12-22T19:23:24.360Z,21.69
2016-12-22T19:24:24.302Z,21.59
2016-12-22T19:25:24.333Z,21.4
2016-12-22T19:26:24.176Z,21.79
2016-12-22T19:27:24.116Z,22.17
2016-12-22T19:28:24.046Z,21.69
2016-12-22T19:29:23.983Z,21.88
2016-12-22T19:30:23.924Z,22.17
2016-12-22T19:31:23.857Z,21.79
2016-12-22T19:32:23.798Z,21.79
2016-12-22T19:33:23.732Z,21.4
2016-12-22T19:34:23.668Z,22.17
2016-12-22T19:36:23.549Z,21.88
2016-12-22T19:37:23.480Z,21.88
2016-12-22T19:38:23.419Z,22.27
2016-12-22T19:39:23.363Z,21.79
2016-12-22T19:40:23.289Z,22.08
2016-12-22T19:41:23.229Z,21.98
2016-12-22T19:42:23.165Z,21.98
2016-12-22T19:43:23.102Z,22.08
2016-12-22T19:44:23.061Z,22.17
2016-12-22T19:45:22.976Z,21.98
2016-12-22T19:46:22.919Z,22.17
2016-12-22T19:47:22.856Z,22.17
2016-12-22T19:48:22.788Z,22.17
2016-12-22T19:49:22.739Z,21.98
2016-12-22T19:50:22.662Z,22.08
2016-12-22T19:51:22.598Z,22.27
2016-12-22T19:52:22.538Z,22.17
2016-12-22T19:53:22.485Z,22.27
2016-12-22T19:54:22.409Z,22.36
2016-12-22T19:55:22.769Z,22.27
2016-12-22T19:56:22.288Z,22.27
2016-12-22T19:57:22.229Z,22.27
2016-12-22T19:58:22.169Z,22.27
2016-12-22T19:59:22.099Z,22.27
2016-12-22T20:00:22.033Z,22.17
2016-12-22T20:01:21.971Z,22.27
2016-12-22T20:02:21.907Z,22.17
2016-12-22T20:03:21.848Z,22.27
2016-12-22T20:04:21.785Z,22.17
2016-12-22T20:05:21.818Z,22.27
2016-12-22T20:06:21.968Z,22.27
2016-12-22T20:07:21.593Z,22.17
2016-12-22T20:08:21.846Z,22.17
2016-12-22T20:09:21.490Z,22.27
2016-12-22T20:10:21.407Z,22.27
2016-12-22T20:11:21.341Z,22.27
2016-12-22T20:12:21.292Z,22.17
2016-12-22T20:13:21.216Z,22.27
2016-12-22T20:14:21.158Z,22.27
2016-12-22T20:15:21.104Z,22.27
2016-12-22T20:16:21.337Z,22.27
2016-12-22T20:17:20.966Z,22.36
2016-12-22T20:18:20.902Z,22.56
2016-12-22T20:19:20.838Z,22.56
2016-12-22T20:20:20.796Z,22.66
2016-12-22T20:21:20.712Z,22.56
2016-12-22T20:22:20.657Z,22.46
2016-12-22T20:23:20.587Z,22.46
2016-12-22T20:24:20.526Z,22.56
2016-12-22T20:25:20.474Z,22.46
2016-12-22T20:26:20.402Z,22.56
2016-12-22T20:27:20.652Z,22.75
2016-12-22T20:28:20.273Z,22.75
2016-12-22T20:29:20.211Z,22.46
2016-12-22T20:30:20.151Z,22.46
2016-12-22T20:31:20.092Z,22.75
2016-12-22T20:32:20.022Z,22.56
2016-12-22T20:33:19.961Z,22.66
2016-12-22T20:34:19.899Z,22.66
2016-12-22T20:35:19.836Z,22.66
2016-12-22T20:36:19.774Z,22.66
2016-12-22T20:37:20.035Z,22.56
2016-12-22T20:38:19.652Z,22.66
2016-12-22T20:39:19.588Z,22.75
2016-12-22T20:40:19.730Z,22.46
2016-12-22T20:41:19.778Z,22.66
2016-12-22T20:42:19.711Z,22.66
2016-12-22T20:43:19.342Z,22.46
2016-12-22T20:44:19.271Z,22.56
2016-12-22T20:45:19.206Z,22.66
2016-12-22T20:46:19.141Z,22.66
2016-12-22T20:47:19.082Z,22.75
2016-12-22T20:48:19.038Z,22.85
2016-12-22T20:49:18.954Z,22.75
2016-12-22T20:50:19.216Z,22.75
2016-12-22T20:51:18.827Z,22.75
2016-12-22T20:52:19.084Z,22.75
2016-12-22T20:53:19.034Z,22.46
2016-12-22T20:54:18.638Z,22.66
2016-12-22T20:55:18.575Z,22.56
2016-12-22T20:56:18.823Z,22.66
2016-12-22T20:57:18.469Z,22.66
2016-12-22T20:58:18.387Z,22.75
2016-12-22T20:59:18.325Z,22.75
2016-12-22T21:00:18.578Z,22.46
2016-12-22T21:01:18.206Z,22.46
2016-12-22T21:02:18.137Z,22.46
2016-12-22T21:03:18.076Z,22.75
2016-12-22T21:04:18.010Z,22.75
2016-12-22T21:05:17.947Z,22.75
2016-12-22T21:06:17.889Z,22.75
2016-12-22T21:07:17.830Z,22.46
2016-12-22T21:08:17.765Z,22.46
2016-12-22T21:09:17.719Z,22.56
2016-12-22T21:10:17.632Z,22.46
2016-12-22T21:11:17.883Z,22.46
2016-12-22T21:12:17.511Z,22.56
2016-12-22T21:13:17.448Z,22.46
2016-12-22T21:14:17.386Z,22.46
2016-12-22T21:15:17.325Z,22.56
2016-12-22T21:16:17.267Z,22.56
2016-12-22T21:17:17.196Z,22.56
2016-12-22T21:18:17.145Z,22.56
2016-12-22T21:19:17.066Z,22.46
2016-12-22T21:20:17.012Z,22.46
2016-12-22T21:21:16.942Z,22.46
2016-12-22T21:22:17.214Z,22.46
2016-12-22T21:23:17.133Z,22.56
2016-12-22T21:24:17.075Z,22.56
2016-12-22T21:25:16.689Z,22.56
2016-12-22T21:26:16.625Z,22.46
2016-12-22T21:27:16.569Z,22.46
2016-12-22T21:28:16.500Z,22.56
2016-12-22T21:29:16.443Z,22.56
2016-12-22T21:30:16.376Z,22.46
2016-12-22T21:31:16.311Z,22.46
2016-12-22T21:32:16.252Z,22.46
2016-12-22T21:33:16.185Z,22.46
2016-12-22T21:34:16.123Z,22.56
2016-12-22T21:35:16.065Z,22.56
2016-12-22T21:36:15.999Z,22.56
2016-12-22T21:37:16.121Z,22.66
2016-12-22T21:38:15.872Z,22.56
2016-12-22T21:39:15.809Z,22.56
2016-12-22T21:40:15.747Z,22.66
2016-12-22T21:41:15.681Z,22.36
2016-12-22T21:42:15.621Z,22.66
2016-12-22T21:43:15.558Z,22.27
2016-12-22T21:44:15.810Z,22.66
2016-12-22T21:45:15.429Z,22.27
2016-12-22T21:46:15.369Z,22.66
2016-12-22T21:47:15.311Z,22.27
2016-12-22T21:48:15.559Z,22.27
2016-12-22T21:49:15.178Z,22.66
2016-12-22T21:50:15.124Z,22.27
2016-12-22T21:51:15.058Z,22.36
2016-12-22T21:52:14.989Z,22.66
2016-12-22T21:53:14.926Z,22.56
2016-12-22T21:54:14.865Z,22.56
2016-12-22T21:55:14.803Z,22.27
2016-12-22T21:56:14.739Z,22.27
2016-12-22T21:57:14.676Z,22.27
2016-12-22T21:58:14.926Z,22.36
2016-12-22T21:59:14.553Z,22.36
2016-12-22T22:00:14.589Z,22.36
2016-12-22T22:01:14.683Z,22.36
2016-12-22T22:02:14.362Z,22.27
2016-12-22T22:03:14.300Z,22.36
2016-12-22T22:04:14.237Z,22.46
2016-12-22T22:05:14.176Z,22.46
2016-12-22T22:06:14.119Z,22.36
2016-12-22T22:07:14.364Z,22.36
2016-12-22T22:08:13.987Z,22.27
2016-12-22T22:09:13.924Z,22.46
2016-12-22T22:10:14.065Z,22.27
2016-12-22T22:11:13.801Z,22.46
2016-12-22T22:12:13.735Z,22.36
2016-12-22T22:13:13.672Z,22.46
2016-12-22T22:14:13.609Z,22.36
2016-12-22T22:15:13.545Z,22.36
2016-12-22T22:16:13.485Z,22.36
2016-12-22T22:17:13.737Z,22.46
2016-12-22T22:18:13.358Z,22.36
2016-12-22T22:19:13.605Z,22.36
2016-12-22T22:20:13.234Z,22.17
2016-12-22T22:21:13.173Z,22.56
2016-12-22T22:22:13.106Z,22.36
2016-12-22T22:23:13.045Z,22.36
2016-12-22T22:24:12.982Z,22.36
2016-12-22T22:25:12.920Z,22.36
2016-12-22T22:26:12.855Z,22.27
2016-12-22T22:27:12.793Z,22.36
2016-12-22T22:28:12.742Z,22.36
2016-12-22T22:29:12.667Z,22.17
2016-12-22T22:30:12.613Z,22.36
2016-12-22T22:31:12.548Z,22.46
2016-12-22T22:32:12.478Z,22.27
2016-12-22T22:33:12.419Z,22.46
2016-12-22T22:34:12.352Z,22.27
2016-12-22T22:35:12.287Z,22.17
2016-12-22T22:36:12.228Z,22.08
2016-12-22T22:37:12.163Z,22.36
2016-12-22T22:38:12.100Z,22.17
2016-12-22T22:39:12.047Z,22.17
2016-12-22T22:40:11.975Z,22.36
2016-12-22T22:41:11.915Z,22.36
2016-12-22T22:42:11.858Z,22.17
2016-12-22T22:43:11.786Z,22.36
2016-12-22T22:44:11.728Z,22.17
2016-12-22T22:45:11.663Z,22.36
2016-12-22T22:46:11.599Z,22.08
2016-12-22T22:47:11.546Z,22.08
2016-12-22T22:48:11.799Z,22.27
2016-12-22T22:49:11.731Z,22.08
2016-12-22T22:50:11.346Z,22.27
2016-12-22T22:51:11.592Z,22.36
2016-12-22T22:52:11.225Z,22.17
2016-12-22T22:53:11.475Z,22.36
2016-12-22T22:54:11.423Z,22.17
2016-12-22T22:55:11.356Z,22.27
2016-12-22T22:56:10.969Z,22.17
2016-12-22T22:57:10.907Z,22.46
2016-12-22T22:58:10.856Z,22.27
2016-12-22T22:59:10.783Z,22.17
2016-12-22T23:00:10.745Z,22.17
2016-12-22T23:01:10.661Z,22.27
2016-12-22T23:02:10.599Z,22.27
2016-12-22T23:03:10.532Z,22.17
2016-12-22T23:04:10.468Z,22.17
2016-12-22T23:05:10.407Z,22.36
2016-12-22T23:06:10.342Z,22.36
2016-12-22T23:07:10.284Z,22.27
2016-12-22T23:08:10.222Z,22.17
2016-12-22T23:09:10.157Z,22.27
2016-12-22T23:10:10.090Z,22.17
2016-12-22T23:11:10.030Z,22.17
2016-12-22T23:12:09.964Z,22.17
2016-12-22T23:13:09.905Z,22.17
2016-12-22T23:14:09.839Z,22.17
2016-12-22T23:15:09.776Z,22.27
2016-12-22T23:16:09.714Z,22.17
2016-12-22T23:17:09.652Z,22.17
2016-12-22T23:18:09.588Z,22.27
2016-12-22T23:19:09.540Z,22.17
2016-12-22T23:20:09.465Z,22.27
2016-12-22T23:21:09.409Z,22.17
2016-12-22T23:22:09.337Z,22.08
2016-12-22T23:23:09.285Z,22.17
2016-12-22T23:24:09.522Z,22.27
2016-12-22T23:25:09.156Z,22.17
2016-12-22T23:26:09.397Z,22.17
2016-12-22T23:27:09.036Z,22.17
2016-12-22T23:28:08.961Z,22.17
2016-12-22T23:29:08.898Z,22.27
2016-12-22T23:30:08.846Z,22.17
2016-12-22T23:31:08.773Z,22.17
2016-12-22T23:32:08.709Z,22.27
2016-12-22T23:33:08.654Z,22.17
2016-12-22T23:34:08.584Z,22.08
2016-12-22T23:35:08.524Z,22.17
2016-12-22T23:36:08.461Z,22.17
2016-12-22T23:37:08.394Z,22.17
2016-12-22T23:38:08.333Z,22.17
2016-12-22T23:39:08.269Z,22.27
2016-12-22T23:40:08.206Z,22.17
2016-12-22T23:41:08.455Z,22.17
2016-12-22T23:42:08.080Z,22.27
2016-12-22T23:43:08.020Z,22.17
2016-12-22T23:44:07.956Z,22.27
2016-12-22T23:45:07.906Z,22.27
2016-12-22T23:46:07.830Z,22.17
2016-12-22T23:47:07.769Z,22.27
2016-12-22T23:48:07.705Z,22.17
2016-12-22T23:49:07.642Z,22.17